sensor_id;sensor_type;location;lat;lon;timestamp;pressure;altitude;pressure_sealevel;temperature;humidity
73628;BME280;61923;51.846;5.856;2023-02-24T00:01:17;101491.88;;;14.99;65.93
73628;BME280;61923;51.846;5.856;2023-02-24T00:03:57;101505.38;;;15.04;65.88
73628;BME280;61923;51.846;5.856;2023-02-24T00:06:23;101501.91;;;15.03;65.98
73628;BME280;61923;51.846;5.856;2023-02-24T00:08:49;101501.78;;;15.05;65.94
73628;BME280;61923;51.846;5.856;2023-02-24T00:11:16;101493.38;;;15.01;65.94
73628;BME280;61923;51.846;5.856;2023-02-24T00:13:43;101500.53;;;14.99;65.92
73628;BME280;61923;51.846;5.856;2023-02-24T00:16:14;101501.22;;;15.01;65.77
73628;BME280;61923;51.846;5.856;2023-02-24T00:18:43;101496.97;;;15.00;65.81
73628;BME280;61923;51.846;5.856;2023-02-24T00:21:12;101496.13;;;15.00;65.73
73628;BME280;61923;51.846;5.856;2023-02-24T00:23:40;101468.09;;;14.82;65.90
73628;BME280;61923;51.846;5.856;2023-02-24T00:26:07;101499.72;;;14.99;65.92
73628;BME280;61923;51.846;5.856;2023-02-24T00:28:34;101492.69;;;14.99;65.78
73628;BME280;61923;51.846;5.856;2023-02-24T00:31:10;101483.22;;;14.98;65.86
73628;BME280;61923;51.846;5.856;2023-02-24T00:33:39;101474.00;;;14.94;65.78
73628;BME280;61923;51.846;5.856;2023-02-24T00:38:34;101482.38;;;14.98;65.65
73628;BME280;61923;51.846;5.856;2023-02-24T00:41:07;101477.44;;;14.94;65.78
73628;BME280;61923;51.846;5.856;2023-02-24T00:43:32;101478.94;;;14.97;65.96
73628;BME280;61923;51.846;5.856;2023-02-24T00:46:01;101474.81;;;14.94;65.91
73628;BME280;61923;51.846;5.856;2023-02-24T00:48:27;101478.13;;;14.97;65.73
73628;BME280;61923;51.846;5.856;2023-02-24T00:50:53;101471.22;;;14.96;66.02
73628;BME280;61923;51.846;5.856;2023-02-24T00:53:18;101471.91;;;14.98;65.95
73628;BME280;61923;51.846;5.856;2023-02-24T00:55:44;101465.84;;;14.97;66.00
73628;BME280;61923;51.846;5.856;2023-02-24T00:58:09;101458.81;;;14.98;65.90
73628;BME280;61923;51.846;5.856;2023-02-24T01:00:34;101458.00;;;14.97;66.39
73628;BME280;61923;51.846;5.856;2023-02-24T01:03:01;101458.16;;;14.96;66.31
73628;BME280;61923;51.846;5.856;2023-02-24T01:05:27;101454.56;;;14.97;66.39
73628;BME280;61923;51.846;5.856;2023-02-24T01:07:52;101445.06;;;14.96;66.40
73628;BME280;61923;51.846;5.856;2023-02-24T01:10:18;101443.44;;;14.94;66.55
73628;BME280;61923;51.846;5.856;2023-02-24T01:12:46;101440.81;;;14.94;66.51
73628;BME280;61923;51.846;5.856;2023-02-24T01:15:17;101444.38;;;14.93;66.37
73628;BME280;61923;51.846;5.856;2023-02-24T01:17:43;101435.03;;;14.91;66.53
73628;BME280;61923;51.846;5.856;2023-02-24T01:20:10;101431.47;;;14.92;66.60
73628;BME280;61923;51.846;5.856;2023-02-24T01:22:45;101427.63;;;14.86;66.39
73628;BME280;61923;51.846;5.856;2023-02-24T01:25:11;101425.69;;;14.88;66.52
73628;BME280;61923;51.846;5.856;2023-02-24T01:27:37;101419.66;;;14.88;66.47
73628;BME280;61923;51.846;5.856;2023-02-24T01:30:08;101416.88;;;14.89;66.74
73628;BME280;61923;51.846;5.856;2023-02-24T01:32:38;101406.84;;;14.85;66.59
73628;BME280;61923;51.846;5.856;2023-02-24T01:35:03;101410.94;;;14.87;66.47
73628;BME280;61923;51.846;5.856;2023-02-24T01:37:29;101401.47;;;14.86;66.46
73628;BME280;61923;51.846;5.856;2023-02-24T01:39:54;101397.06;;;14.87;66.63
73628;BME280;61923;51.846;5.856;2023-02-24T01:42:20;101399.69;;;14.87;66.63
73628;BME280;61923;51.846;5.856;2023-02-24T01:47:12;101390.19;;;14.86;66.39
73628;BME280;61923;51.846;5.856;2023-02-24T01:52:08;101383.44;;;14.83;66.48
73628;BME280;61923;51.846;5.856;2023-02-24T01:54:52;101379.75;;;14.86;66.47
73628;BME280;61923;51.846;5.856;2023-02-24T01:57:21;101374.66;;;14.84;66.84
73628;BME280;61923;51.846;5.856;2023-02-24T01:59:50;101368.28;;;14.87;66.83
73628;BME280;61923;51.846;5.856;2023-02-24T02:02:17;101360.59;;;14.85;66.92
73628;BME280;61923;51.846;5.856;2023-02-24T02:04:50;101360.59;;;14.85;66.86
73628;BME280;61923;51.846;5.856;2023-02-24T02:07:20;101354.41;;;14.86;66.75
73628;BME280;61923;51.846;5.856;2023-02-24T02:09:47;101346.56;;;14.86;66.65
73628;BME280;61923;51.846;5.856;2023-02-24T02:12:13;101331.81;;;14.85;66.67
73628;BME280;61923;51.846;5.856;2023-02-24T02:14:42;101322.63;;;14.81;67.03
73628;BME280;61923;51.846;5.856;2023-02-24T02:25:32;101321.81;;;14.81;66.73
73628;BME280;61923;51.846;5.856;2023-02-24T02:36:50;101305.56;;;14.77;66.61
73628;BME280;61923;51.846;5.856;2023-02-24T02:44:47;101298.03;;;14.74;66.57
73628;BME280;61923;51.846;5.856;2023-02-24T02:50:18;101293.75;;;14.73;66.75
73628;BME280;61923;51.846;5.856;2023-02-24T02:52:49;101281.50;;;14.73;66.65
73628;BME280;61923;51.846;5.856;2023-02-24T02:55:23;101289.50;;;14.72;66.55
73628;BME280;61923;51.846;5.856;2023-02-24T02:57:52;101274.22;;;14.67;66.67
73628;BME280;61923;51.846;5.856;2023-02-24T03:00:28;101276.56;;;14.70;66.65
73628;BME280;61923;51.846;5.856;2023-02-24T03:03:05;101278.38;;;14.70;66.67
73628;BME280;61923;51.846;5.856;2023-02-24T03:05:40;101251.72;;;14.57;66.73
73628;BME280;61923;51.846;5.856;2023-02-24T03:08:13;101269.00;;;14.67;66.76
73628;BME280;61923;51.846;5.856;2023-02-24T03:10:40;101271.47;;;14.69;66.59
73628;BME280;61923;51.846;5.856;2023-02-24T03:13:10;101259.66;;;14.65;66.83
73628;BME280;61923;51.846;5.856;2023-02-24T03:15:39;101268.72;;;14.70;66.70
73628;BME280;61923;51.846;5.856;2023-02-24T03:18:14;101259.22;;;14.69;66.73
73628;BME280;61923;51.846;5.856;2023-02-24T03:20:51;101250.56;;;14.69;66.72
73628;BME280;61923;51.846;5.856;2023-02-24T03:23:24;101253.03;;;14.70;66.74
73628;BME280;61923;51.846;5.856;2023-02-24T03:26:10;101245.34;;;14.69;66.77
73628;BME280;61923;51.846;5.856;2023-02-24T03:32:39;101236.13;;;14.65;66.62
73628;BME280;61923;51.846;5.856;2023-02-24T03:35:21;101234.34;;;14.65;66.63
73628;BME280;61923;51.846;5.856;2023-02-24T03:37:48;101224.59;;;14.58;66.55
73628;BME280;61923;51.846;5.856;2023-02-24T03:40:15;101232.69;;;14.64;66.52
73628;BME280;61923;51.846;5.856;2023-02-24T03:42:46;101229.09;;;14.65;66.78
73628;BME280;61923;51.846;5.856;2023-02-24T03:45:12;101228.97;;;14.67;66.83
73628;BME280;61923;51.846;5.856;2023-02-24T03:47:40;101230.75;;;14.66;66.67
73628;BME280;61923;51.846;5.856;2023-02-24T03:50:15;101218.94;;;14.62;66.88
73628;BME280;61923;51.846;5.856;2023-02-24T03:52:50;101232.69;;;14.64;66.62
73628;BME280;61923;51.846;5.856;2023-02-24T03:55:40;101201.34;;;14.54;66.85
73628;BME280;61923;51.846;5.856;2023-02-24T03:58:25;101213.72;;;14.62;66.70
73628;BME280;61923;51.846;5.856;2023-02-24T04:04:02;101213.72;;;14.62;66.78
73628;BME280;61923;51.846;5.856;2023-02-24T04:06:46;101204.22;;;14.61;66.46
73628;BME280;61923;51.846;5.856;2023-02-24T04:09:46;101210.25;;;14.62;66.64
73628;BME280;61923;51.846;5.856;2023-02-24T04:12:28;101201.34;;;14.54;66.57
73628;BME280;61923;51.846;5.856;2023-02-24T04:15:04;101203.41;;;14.61;66.73
73628;BME280;61923;51.846;5.856;2023-02-24T04:20:06;101199.69;;;14.53;66.50
73628;BME280;61923;51.846;5.856;2023-02-24T04:23:01;101192.69;;;14.54;66.71
73628;BME280;61923;51.846;5.856;2023-02-24T04:25:29;101185.25;;;14.49;66.58
73628;BME280;61923;51.846;5.856;2023-02-24T04:27:57;101189.22;;;14.53;66.48
73628;BME280;61923;51.846;5.856;2023-02-24T04:30:25;101201.06;;;14.58;66.74
73628;BME280;61923;51.846;5.856;2023-02-24T04:32:53;101201.91;;;14.58;66.71
73628;BME280;61923;51.846;5.856;2023-02-24T04:35:20;101192.28;;;14.59;66.86
73628;BME280;61923;51.846;5.856;2023-02-24T04:37:47;101188.84;;;14.58;66.94
73628;BME280;61923;51.846;5.856;2023-02-24T04:40:16;101181.00;;;14.58;66.89
73628;BME280;61923;51.846;5.856;2023-02-24T04:42:42;101175.78;;;14.58;66.98
73628;BME280;61923;51.846;5.856;2023-02-24T04:45:13;101172.19;;;14.59;66.95
73628;BME280;61923;51.846;5.856;2023-02-24T04:47:40;101174.94;;;14.58;67.02
73628;BME280;61923;51.846;5.856;2023-02-24T04:50:07;101171.59;;;14.65;66.67
73628;BME280;61923;51.846;5.856;2023-02-24T04:52:35;101165.97;;;14.70;66.95
73628;BME280;61923;51.846;5.856;2023-02-24T04:55:00;101160.88;;;14.68;66.96
73628;BME280;61923;51.846;5.856;2023-02-24T04:57:25;101158.69;;;14.64;67.14
73628;BME280;61923;51.846;5.856;2023-02-24T04:59:51;101154.16;;;14.66;67.28
73628;BME280;61923;51.846;5.856;2023-02-24T05:02:18;101155.72;;;14.77;66.69
73628;BME280;61923;51.846;5.856;2023-02-24T05:04:45;101144.88;;;14.71;67.12
73628;BME280;61923;51.846;5.856;2023-02-24T05:07:14;101142.03;;;14.65;67.38
73628;BME280;61923;51.846;5.856;2023-02-24T05:09:40;101128.44;;;14.61;67.29
73628;BME280;61923;51.846;5.856;2023-02-24T05:12:06;101130.91;;;14.63;66.99
73628;BME280;61923;51.846;5.856;2023-02-24T05:14:33;101117.59;;;14.56;67.01
73628;BME280;61923;51.846;5.856;2023-02-24T05:16:59;101128.56;;;14.60;67.00
73628;BME280;61923;51.846;5.856;2023-02-24T05:19:25;101131.19;;;14.60;66.84
73628;BME280;61923;51.846;5.856;2023-02-24T05:22:09;101133.13;;;14.58;66.89
73628;BME280;61923;51.846;5.856;2023-02-24T05:24:35;101122.66;;;14.58;66.75
73628;BME280;61923;51.846;5.856;2023-02-24T05:27:01;101112.22;;;14.58;66.86
73628;BME280;61923;51.846;5.856;2023-02-24T05:29:33;101108.63;;;14.59;66.94
73628;BME280;61923;51.846;5.856;2023-02-24T05:31:59;101102.59;;;14.58;66.79
73628;BME280;61923;51.846;5.856;2023-02-24T05:34:30;101100.13;;;14.57;66.92
73628;BME280;61923;51.846;5.856;2023-02-24T05:36:57;101073.78;;;14.40;66.66
73628;BME280;61923;51.846;5.856;2023-02-24T05:39:24;101082.25;;;14.52;66.84
73628;BME280;61923;51.846;5.856;2023-02-24T05:41:51;101075.91;;;14.54;66.82
73628;BME280;61923;51.846;5.856;2023-02-24T05:44:20;101080.31;;;14.54;66.90
73628;BME280;61923;51.846;5.856;2023-02-24T05:46:49;101075.22;;;14.52;66.79
73628;BME280;61923;51.846;5.856;2023-02-24T05:49:20;101069.31;;;14.50;66.98
73628;BME280;61923;51.846;5.856;2023-02-24T05:51:52;101064.09;;;14.50;67.27
73628;BME280;61923;51.846;5.856;2023-02-24T05:54:26;101042.44;;;14.40;66.87
73628;BME280;61923;51.846;5.856;2023-02-24T05:57:01;101053.63;;;14.50;66.87
73628;BME280;61923;51.846;5.856;2023-02-24T05:59:27;101047.59;;;14.50;66.80
73628;BME280;61923;51.846;5.856;2023-02-24T06:01:58;101043.19;;;14.50;66.88
73628;BME280;61923;51.846;5.856;2023-02-24T06:04:24;101032.34;;;14.45;66.79
73628;BME280;61923;51.846;5.856;2023-02-24T06:07:05;101037.28;;;14.48;66.86
73628;BME280;61923;51.846;5.856;2023-02-24T06:09:30;101029.72;;;14.45;66.56
73628;BME280;61923;51.846;5.856;2023-02-24T06:11:56;101032.88;;;14.49;66.54
73628;BME280;61923;51.846;5.856;2023-02-24T06:14:21;101024.50;;;14.45;66.56
73628;BME280;61923;51.846;5.856;2023-02-24T06:16:46;101013.69;;;14.40;66.46
73628;BME280;61923;51.846;5.856;2023-02-24T06:19:12;101019.13;;;14.47;66.45
73628;BME280;61923;51.846;5.856;2023-02-24T06:21:40;101020.25;;;14.44;66.53
73628;BME280;61923;51.846;5.856;2023-02-24T06:24:10;101009.13;;;14.42;66.69
73628;BME280;61923;51.846;5.856;2023-02-24T06:26:39;100998.81;;;14.41;66.40
73628;BME280;61923;51.846;5.856;2023-02-24T06:29:13;101008.00;;;14.45;66.50
73628;BME280;61923;51.846;5.856;2023-02-24T06:31:39;100995.63;;;14.47;66.50
73628;BME280;61923;51.846;5.856;2023-02-24T06:34:06;100995.09;;;14.43;66.45
73628;BME280;61923;51.846;5.856;2023-02-24T06:36:31;100989.63;;;14.37;66.21
73628;BME280;61923;51.846;5.856;2023-02-24T06:38:56;100994.81;;;14.46;66.41
73628;BME280;61923;51.846;5.856;2023-02-24T06:41:22;100993.16;;;14.45;66.32
73628;BME280;61923;51.846;5.856;2023-02-24T06:43:47;100990.53;;;14.45;66.40
73628;BME280;61923;51.846;5.856;2023-02-24T06:46:14;100992.34;;;14.45;66.37
73628;BME280;61923;51.846;5.856;2023-02-24T06:48:41;100974.63;;;14.39;66.21
73628;BME280;61923;51.846;5.856;2023-02-24T06:51:09;100970.00;;;14.50;65.89
73628;BME280;61923;51.846;5.856;2023-02-24T06:53:38;100974.69;;;14.57;65.74
73628;BME280;61923;51.846;5.856;2023-02-24T06:56:12;100961.78;;;14.45;65.92
73628;BME280;61923;51.846;5.856;2023-02-24T06:58:46;100967.53;;;14.49;66.28
73628;BME280;61923;51.846;5.856;2023-02-24T07:01:13;100968.53;;;14.48;66.06
73628;BME280;61923;51.846;5.856;2023-02-24T07:03:39;100973.09;;;14.46;65.95
73628;BME280;61923;51.846;5.856;2023-02-24T07:06:11;100971.28;;;14.46;65.98
73628;BME280;61923;51.846;5.856;2023-02-24T07:08:49;100968.00;;;14.44;66.03
73628;BME280;61923;51.846;5.856;2023-02-24T07:11:14;100962.78;;;14.44;65.94
73628;BME280;61923;51.846;5.856;2023-02-24T07:13:42;100963.06;;;14.41;65.69
73628;BME280;61923;51.846;5.856;2023-02-24T07:16:08;100950.59;;;14.35;65.99
73628;BME280;61923;51.846;5.856;2023-02-24T07:18:37;100961.13;;;14.43;65.96
73628;BME280;61923;51.846;5.856;2023-02-24T07:21:05;100952.19;;;14.46;65.79
73628;BME280;61923;51.846;5.856;2023-02-24T07:23:36;100950.00;;;14.41;65.77
73628;BME280;61923;51.846;5.856;2023-02-24T07:26:06;100942.69;;;14.45;65.70
73628;BME280;61923;51.846;5.856;2023-02-24T07:28:34;100938.28;;;14.45;65.79
73628;BME280;61923;51.846;5.856;2023-02-24T07:31:03;100937.91;;;14.40;65.72
73628;BME280;61923;51.846;5.856;2023-02-24T07:33:29;100937.31;;;14.46;65.83
73628;BME280;61923;51.846;5.856;2023-02-24T07:35:54;100925.22;;;14.45;65.22
73628;BME280;61923;51.846;5.856;2023-02-24T07:38:20;100930.31;;;14.65;64.15
73628;BME280;61923;51.846;5.856;2023-02-24T07:40:47;100933.59;;;14.67;62.91
73628;BME280;61923;51.846;5.856;2023-02-24T07:43:14;100923.06;;;14.59;64.22
73628;BME280;61923;51.846;5.856;2023-02-24T07:45:40;100928.44;;;14.57;64.71
73628;BME280;61923;51.846;5.856;2023-02-24T07:48:05;100915.66;;;14.54;64.86
73628;BME280;61923;51.846;5.856;2023-02-24T07:50:30;100919.69;;;14.48;64.70
73628;BME280;61923;51.846;5.856;2023-02-24T07:52:56;100917.44;;;14.53;65.03
73628;BME280;61923;51.846;5.856;2023-02-24T07:55:23;100882.81;;;14.33;64.99
73628;BME280;61923;51.846;5.856;2023-02-24T07:57:50;100912.22;;;14.53;65.11
73628;BME280;61923;51.846;5.856;2023-02-24T08:00:16;100879.38;;;14.33;65.11
73628;BME280;61923;51.846;5.856;2023-02-24T08:02:48;100909.91;;;14.50;65.17
73628;BME280;61923;51.846;5.856;2023-02-24T08:05:17;100897.66;;;14.51;65.13
73628;BME280;61923;51.846;5.856;2023-02-24T08:07:46;100886.41;;;14.50;65.13
73628;BME280;61923;51.846;5.856;2023-02-24T08:10:18;100883.78;;;14.50;64.98
73628;BME280;61923;51.846;5.856;2023-02-24T08:12:54;100893.78;;;14.55;65.21
73628;BME280;61923;51.846;5.856;2023-02-24T08:15:22;100901.63;;;14.55;65.14
73628;BME280;61923;51.846;5.856;2023-02-24T08:17:55;100899.81;;;14.55;65.26
73628;BME280;61923;51.846;5.856;2023-02-24T08:20:24;100897.38;;;14.54;65.20
73628;BME280;61923;51.846;5.856;2023-02-24T08:22:53;100894.91;;;14.52;65.37
73628;BME280;61923;51.846;5.856;2023-02-24T08:25:23;100889.34;;;14.55;65.23
73628;BME280;61923;51.846;5.856;2023-02-24T08:27:51;100867.28;;;14.50;65.52
73628;BME280;61923;51.846;5.856;2023-02-24T08:30:23;100881.25;;;14.59;65.38
73628;BME280;61923;51.846;5.856;2023-02-24T08:32:51;100874.47;;;14.66;63.89
73628;BME280;61923;51.846;5.856;2023-02-24T08:35:24;100871.06;;;14.73;62.38
73628;BME280;61923;51.846;5.856;2023-02-24T08:38:00;100864.50;;;14.69;62.16
73628;BME280;61923;51.846;5.856;2023-02-24T08:40:29;100856.16;;;14.66;62.75
73628;BME280;61923;51.846;5.856;2023-02-24T08:45:55;100856.75;;;14.60;63.50
73628;BME280;61923;51.846;5.856;2023-02-24T08:48:45;100858.41;;;14.61;63.76
73628;BME280;61923;51.846;5.856;2023-02-24T08:51:17;100849.56;;;14.62;63.71
73628;BME280;61923;51.846;5.856;2023-02-24T08:53:48;100838.47;;;14.60;64.06
73628;BME280;61923;51.846;5.856;2023-02-24T08:56:15;100832.13;;;14.62;64.01
73628;BME280;61923;51.846;5.856;2023-02-24T08:58:48;100828.66;;;14.62;64.01
73628;BME280;61923;51.846;5.856;2023-02-24T09:01:16;100833.91;;;14.62;63.95
73628;BME280;61923;51.846;5.856;2023-02-24T09:03:45;100827.72;;;14.63;64.03
73628;BME280;61923;51.846;5.856;2023-02-24T09:06:12;100816.31;;;14.64;64.18
73628;BME280;61923;51.846;5.856;2023-02-24T09:08:41;100816.97;;;14.66;64.07
73628;BME280;61923;51.846;5.856;2023-02-24T09:11:16;100808.47;;;14.64;64.03
73628;BME280;61923;51.846;5.856;2023-02-24T09:13:43;100815.31;;;14.65;63.90
73628;BME280;61923;51.846;5.856;2023-02-24T09:16:23;100813.50;;;14.65;63.86
73628;BME280;61923;51.846;5.856;2023-02-24T09:18:51;100798.81;;;14.64;63.79
73628;BME280;61923;51.846;5.856;2023-02-24T09:21:39;100783.97;;;14.47;63.87
73628;BME280;61923;51.846;5.856;2023-02-24T09:24:16;100803.38;;;14.62;63.73
73628;BME280;61923;51.846;5.856;2023-02-24T09:26:54;100805.16;;;14.62;63.83
73628;BME280;61923;51.846;5.856;2023-02-24T09:29:24;100793.88;;;14.61;63.83
73628;BME280;61923;51.846;5.856;2023-02-24T09:32:05;100786.03;;;14.61;63.75
73628;BME280;61923;51.846;5.856;2023-02-24T09:34:34;100782.63;;;14.61;63.75
73628;BME280;61923;51.846;5.856;2023-02-24T09:37:00;100776.72;;;14.59;63.73
73628;BME280;61923;51.846;5.856;2023-02-24T09:39:36;100769.16;;;14.55;63.70
73628;BME280;61923;51.846;5.856;2023-02-24T09:42:30;100763.09;;;14.55;63.65
73628;BME280;61923;51.846;5.856;2023-02-24T09:45:19;100765.59;;;14.57;63.68
73628;BME280;61923;51.846;5.856;2023-02-24T09:47:58;100750.75;;;14.57;63.78
73628;BME280;61923;51.846;5.856;2023-02-24T09:50:35;100747.97;;;14.59;63.78
73628;BME280;61923;51.846;5.856;2023-02-24T09:53:13;100746.03;;;14.61;63.54
73628;BME280;61923;51.846;5.856;2023-02-24T09:55:51;100741.47;;;14.63;63.81
73628;BME280;61923;51.846;5.856;2023-02-24T09:59:02;100744.88;;;14.63;63.83
73628;BME280;61923;51.846;5.856;2023-02-24T10:04:36;100731.00;;;14.63;63.71
73628;BME280;61923;51.846;5.856;2023-02-24T10:07:16;100731.53;;;14.66;63.53
73628;BME280;61923;51.846;5.856;2023-02-24T10:09:47;100729.44;;;14.70;63.55
73628;BME280;61923;51.846;5.856;2023-02-24T10:17:25;100719.97;;;14.77;63.49
73628;BME280;61923;51.846;5.856;2023-02-24T10:28:23;100701.00;;;14.75;63.61
73628;BME280;61923;51.846;5.856;2023-02-24T10:31:09;100694.16;;;14.74;63.46
73628;BME280;61923;51.846;5.856;2023-02-24T10:33:37;100693.31;;;14.73;63.67
73628;BME280;61923;51.846;5.856;2023-02-24T10:38:36;100689.72;;;14.74;63.69
73628;BME280;61923;51.846;5.856;2023-02-24T10:41:02;100680.72;;;14.69;63.62
73628;BME280;61923;51.846;5.856;2023-02-24T10:43:31;100685.81;;;14.70;63.85
73628;BME280;61923;51.846;5.856;2023-02-24T10:46:00;100657.78;;;14.54;63.58
73628;BME280;61923;51.846;5.856;2023-02-24T10:48:41;100689.88;;;14.73;63.88
73628;BME280;61923;51.846;5.856;2023-02-24T10:51:16;100686.75;;;14.69;63.77
73628;BME280;61923;51.846;5.856;2023-02-24T10:56:46;100678.47;;;14.74;63.77
73628;BME280;61923;51.846;5.856;2023-02-24T10:59:19;100684.00;;;14.71;63.79
73628;BME280;61923;51.846;5.856;2023-02-24T11:02:25;100678.78;;;14.71;63.96
73628;BME280;61923;51.846;5.856;2023-02-24T11:05:07;100679.44;;;14.73;64.01
73628;BME280;61923;51.846;5.856;2023-02-24T11:08:10;100666.34;;;14.73;63.91
73628;BME280;61923;51.846;5.856;2023-02-24T11:10:41;100662.13;;;14.72;64.03
73628;BME280;61923;51.846;5.856;2023-02-24T11:13:18;100652.34;;;14.74;63.90
73628;BME280;61923;51.846;5.856;2023-02-24T11:16:03;100658.38;;;14.74;64.00
73628;BME280;61923;51.846;5.856;2023-02-24T11:18:50;100653.00;;;14.76;64.07
73628;BME280;61923;51.846;5.856;2023-02-24T11:21:17;100651.50;;;14.73;64.21
73628;BME280;61923;51.846;5.856;2023-02-24T11:23:47;100645.44;;;14.73;64.26
73628;BME280;61923;51.846;5.856;2023-02-24T11:26:35;100641.69;;;14.76;64.21
73628;BME280;61923;51.846;5.856;2023-02-24T11:34:33;100618.81;;;14.78;63.94
73628;BME280;61923;51.846;5.856;2023-02-24T11:40:05;100610.84;;;14.79;64.13
73628;BME280;61923;51.846;5.856;2023-02-24T11:42:41;100609.38;;;14.77;64.30
73628;BME280;61923;51.846;5.856;2023-02-24T11:45:37;100610.97;;;14.78;64.47
73628;BME280;61923;51.846;5.856;2023-02-24T11:50:57;100598.91;;;14.77;64.39
73628;BME280;61923;51.846;5.856;2023-02-24T11:56:22;100580.59;;;14.77;64.73
73628;BME280;61923;51.846;5.856;2023-02-24T12:01:31;100589.25;;;14.77;64.69
73628;BME280;61923;51.846;5.856;2023-02-24T12:09:31;100576.84;;;14.79;64.43
73628;BME280;61923;51.846;5.856;2023-02-24T12:12:10;100559.53;;;14.78;64.49
73628;BME280;61923;51.846;5.856;2023-02-24T12:14:56;100557.09;;;14.77;64.48
73628;BME280;61923;51.846;5.856;2023-02-24T12:17:45;100549.72;;;14.72;64.68
73628;BME280;61923;51.846;5.856;2023-02-24T12:23:03;100555.78;;;14.81;64.45
73628;BME280;61923;51.846;5.856;2023-02-24T12:25:55;100540.25;;;14.79;64.59
73628;BME280;61923;51.846;5.856;2023-02-24T12:31:29;100536.00;;;14.70;64.68
73628;BME280;61923;51.846;5.856;2023-02-24T12:34:16;100550.19;;;14.76;64.57
73628;BME280;61923;51.846;5.856;2023-02-24T12:39:29;100532.41;;;14.71;64.54
73628;BME280;61923;51.846;5.856;2023-02-24T12:45:57;100539.28;;;14.72;64.96
73628;BME280;61923;51.846;5.856;2023-02-24T12:54:19;100525.22;;;14.73;64.84
73628;BME280;61923;51.846;5.856;2023-02-24T12:59:38;100515.56;;;14.73;64.92
73628;BME280;61923;51.846;5.856;2023-02-24T13:02:34;100483.88;;;14.68;64.77
73628;BME280;61923;51.846;5.856;2023-02-24T13:05:18;100500.38;;;14.77;64.57
73628;BME280;61923;51.846;5.856;2023-02-24T13:10:45;100486.34;;;14.78;64.68
73628;BME280;61923;51.846;5.856;2023-02-24T13:13:18;100486.34;;;14.78;64.84
73628;BME280;61923;51.846;5.856;2023-02-24T13:15:53;100476.22;;;14.83;64.71
73628;BME280;61923;51.846;5.856;2023-02-24T13:18:33;100470.00;;;14.84;64.57
73628;BME280;61923;51.846;5.856;2023-02-24T13:21:19;100457.91;;;14.83;64.47
73628;BME280;61923;51.846;5.856;2023-02-24T13:23:55;100445.50;;;14.77;64.53
73628;BME280;61923;51.846;5.856;2023-02-24T13:26:22;100446.13;;;14.87;64.57
73628;BME280;61923;51.846;5.856;2023-02-24T13:29:01;100442.88;;;14.85;64.55
73628;BME280;61923;51.846;5.856;2023-02-24T13:31:39;100417.88;;;14.83;64.83
73628;BME280;61923;51.846;5.856;2023-02-24T13:34:28;100424.56;;;14.85;64.70
73628;BME280;61923;51.846;5.856;2023-02-24T13:36:55;100429.81;;;14.85;64.76
73628;BME280;61923;51.846;5.856;2023-02-24T13:39:30;100434.22;;;14.85;64.74
73628;BME280;61923;51.846;5.856;2023-02-24T13:45:16;100403.00;;;14.91;64.72
73628;BME280;61923;51.846;5.856;2023-02-24T14:01:25;100397.09;;;14.98;64.73
73628;BME280;61923;51.846;5.856;2023-02-24T14:04:13;100386.31;;;15.01;64.84
73628;BME280;61923;51.846;5.856;2023-02-24T14:06:45;100376.50;;;15.03;64.74
73628;BME280;61923;51.846;5.856;2023-02-24T14:09:15;100368.66;;;15.03;64.82
73628;BME280;61923;51.846;5.856;2023-02-24T14:11:42;100377.50;;;15.02;64.95
73628;BME280;61923;51.846;5.856;2023-02-24T14:14:15;100368.03;;;14.92;64.88
73628;BME280;61923;51.846;5.856;2023-02-24T14:16:43;100377.31;;;15.03;65.08
73628;BME280;61923;51.846;5.856;2023-02-24T14:19:14;100366.38;;;15.00;65.11
73628;BME280;61923;51.846;5.856;2023-02-24T14:21:52;100379.78;;;15.05;65.04
73628;BME280;61923;51.846;5.856;2023-02-24T14:24:18;100372.91;;;14.96;64.97
73628;BME280;61923;51.846;5.856;2023-02-24T14:29:17;100374.69;;;15.03;65.26
73628;BME280;61923;51.846;5.856;2023-02-24T14:31:51;100387.63;;;15.05;65.47
73628;BME280;61923;51.846;5.856;2023-02-24T14:34:23;100392.03;;;15.04;65.42
73628;BME280;61923;51.846;5.856;2023-02-24T14:36:54;100414.28;;;15.00;65.37
73628;BME280;61923;51.846;5.856;2023-02-24T14:39:23;100398.91;;;14.97;65.70
73628;BME280;61923;51.846;5.856;2023-02-24T14:41:51;100411.50;;;14.93;65.70
73628;BME280;61923;51.846;5.856;2023-02-24T14:44:28;100404.63;;;14.92;65.51
73628;BME280;61923;51.846;5.856;2023-02-24T14:46:56;100401.38;;;14.90;65.86
73628;BME280;61923;51.846;5.856;2023-02-24T14:49:27;100413.44;;;14.91;65.73
73628;BME280;61923;51.846;5.856;2023-02-24T14:52:05;100400.06;;;14.94;65.74
73628;BME280;61923;51.846;5.856;2023-02-24T14:54:41;100396.44;;;14.96;65.60
73628;BME280;61923;51.846;5.856;2023-02-24T14:57:15;100411.34;;;14.95;65.48
73628;BME280;61923;51.846;5.856;2023-02-24T14:59:45;100407.56;;;14.98;65.55
73628;BME280;61923;51.846;5.856;2023-02-24T15:02:15;100407.56;;;14.98;65.43
73628;BME280;61923;51.846;5.856;2023-02-24T15:04:44;100399.41;;;14.92;65.72
73628;BME280;61923;51.846;5.856;2023-02-24T15:07:20;100396.81;;;14.92;65.59
73628;BME280;61923;51.846;5.856;2023-02-24T15:09:47;100380.47;;;14.90;65.61
73628;BME280;61923;51.846;5.856;2023-02-24T15:14:47;100390.41;;;14.95;65.51
73628;BME280;61923;51.846;5.856;2023-02-24T15:17:15;100403.16;;;14.98;65.55
73628;BME280;61923;51.846;5.856;2023-02-24T15:19:42;100393.69;;;14.97;65.61
73628;BME280;61923;51.846;5.856;2023-02-24T15:24:47;100389.09;;;14.99;65.43
73628;BME280;61923;51.846;5.856;2023-02-24T15:29:38;100379.16;;;14.94;65.47
73628;BME280;61923;51.846;5.856;2023-02-24T15:32:04;100385.69;;;14.90;65.58
73628;BME280;61923;51.846;5.856;2023-02-24T15:34:36;100381.91;;;14.93;65.59